Greenville, Indiana
Current Conditions -  °F | °C
As of 7:56 PM on Thursday 27 Nov 2014 (Local Time) from KSDF Reporting Station
Light Snow Light Snow  
Wind Chill: 22°   Ceiling: 2300
Heat Index: 30°   Visibility: 9mi
Dew Point: 22°   Wind: 9mph
Humidity: 72%   Direction: 270°W
Pressure: 30.44"   Gusts: NA
Location:  38.37°N, 85.99°W
Report Text: KSDF 280056Z 27008KT 9SM -SN OVC023 M01/M06 A3044 RMK AO2 SNB21 SLP313 P0000 T10111056
Loading
Personal Weather Stations






























Interactive Weather Map New forecast layout! Learn more

10-Day Weather Forecast

Advertisements
Track Severe Weather on mobile